createdAt,value
2018-03-23T00:01:06.509Z,84.66
2018-03-23T00:03:34.017Z,85.10
2018-03-23T00:06:01.491Z,84.48
2018-03-23T00:08:28.967Z,84.52
2018-03-23T00:10:56.430Z,84.58
2018-03-23T00:13:23.888Z,84.64
2018-03-23T00:15:51.358Z,84.96
2018-03-23T00:18:18.836Z,84.91
2018-03-23T00:20:46.293Z,85.47
2018-03-23T00:23:13.774Z,85.25
2018-03-23T00:25:41.227Z,84.90
2018-03-23T00:28:08.678Z,84.35
2018-03-23T00:30:36.135Z,84.62
2018-03-23T00:33:03.610Z,84.79
2018-03-23T00:35:31.087Z,84.53
2018-03-23T00:37:58.562Z,84.46
2018-03-23T00:40:26.097Z,84.48
2018-03-23T00:42:53.556Z,84.93
2018-03-23T00:45:21.014Z,84.84
2018-03-23T00:47:48.482Z,84.49
2018-03-23T00:50:15.918Z,84.51
2018-03-23T00:52:43.388Z,84.81
2018-03-23T00:55:10.843Z,84.46
2018-03-23T00:57:38.345Z,84.81
2018-03-23T01:00:05.823Z,84.96
2018-03-23T01:02:33.502Z,85.09
2018-03-23T01:05:00.955Z,85.68
2018-03-23T01:07:28.413Z,85.41
2018-03-23T01:09:55.879Z,85.79
2018-03-23T01:12:23.325Z,85.96
2018-03-23T01:14:50.787Z,85.71
2018-03-23T01:17:18.252Z,85.21
2018-03-23T01:19:45.698Z,84.80
2018-03-23T01:22:15.908Z,85.16
2018-03-23T01:24:43.377Z,85.43
2018-03-23T01:27:10.831Z,84.92
2018-03-23T01:29:38.297Z,84.97
2018-03-23T01:32:05.754Z,85.16
2018-03-23T01:34:33.197Z,84.81
2018-03-23T01:37:00.669Z,84.86
2018-03-23T01:39:28.124Z,84.81
2018-03-23T01:41:55.564Z,85.00
2018-03-23T01:44:23.025Z,84.55
2018-03-23T01:46:50.473Z,85.26
2018-03-23T01:49:17.919Z,85.71
2018-03-23T01:51:45.399Z,85.32
2018-03-23T01:54:12.856Z,85.80
2018-03-23T01:56:40.305Z,85.61
2018-03-23T01:59:07.750Z,85.32
2018-03-23T02:01:35.223Z,85.27
2018-03-23T02:04:02.711Z,85.22
2018-03-23T02:06:30.174Z,85.55
2018-03-23T02:08:57.652Z,85.55
2018-03-23T02:11:25.101Z,85.84
2018-03-23T02:13:52.589Z,85.97
2018-03-23T02:16:20.047Z,86.06
2018-03-23T02:18:47.510Z,86.21
2018-03-23T02:21:14.985Z,86.10
2018-03-23T02:23:42.595Z,86.00
2018-03-23T02:26:10.084Z,85.84
2018-03-23T02:28:37.532Z,85.43
2018-03-23T02:31:04.990Z,85.58
2018-03-23T02:33:32.442Z,85.41
2018-03-23T02:35:59.917Z,85.40
2018-03-23T02:38:27.386Z,85.11
2018-03-23T02:40:54.842Z,85.16
2018-03-23T02:43:22.302Z,84.95
2018-03-23T02:45:49.810Z,84.77
2018-03-23T02:48:17.260Z,84.92
2018-03-23T02:50:44.710Z,85.50
2018-03-23T02:53:12.187Z,85.74
2018-03-23T02:55:39.636Z,85.77
2018-03-23T02:58:07.101Z,85.48
2018-03-23T03:00:34.557Z,85.37
2018-03-23T03:03:02.014Z,85.42
2018-03-23T03:05:29.466Z,85.53
2018-03-23T03:07:56.917Z,85.33
2018-03-23T03:10:24.381Z,85.20
2018-03-23T03:12:51.867Z,85.00
2018-03-23T03:15:19.325Z,85.28
2018-03-23T03:17:46.773Z,85.19
2018-03-23T03:20:14.226Z,85.69
2018-03-23T03:22:41.684Z,85.14
2018-03-23T03:25:09.241Z,85.18
2018-03-23T03:27:36.714Z,85.09
2018-03-23T03:30:04.167Z,85.25
2018-03-23T03:32:31.611Z,85.49
2018-03-23T03:34:59.060Z,85.52
2018-03-23T03:37:26.518Z,85.71
2018-03-23T03:39:53.986Z,85.68
2018-03-23T03:42:21.446Z,86.24
2018-03-23T03:44:48.926Z,86.06
2018-03-23T03:47:16.440Z,86.19
2018-03-23T03:49:43.895Z,86.58
2018-03-23T03:52:11.365Z,86.40
2018-03-23T03:54:38.843Z,86.47
2018-03-23T03:57:06.303Z,86.35
2018-03-23T03:59:33.872Z,86.32
2018-03-23T04:02:01.316Z,86.41
2018-03-23T04:04:28.781Z,86.59
2018-03-23T04:06:56.254Z,86.70
2018-03-23T04:09:23.701Z,86.78
2018-03-23T04:11:51.144Z,86.76
2018-03-23T04:14:18.598Z,86.42
2018-03-23T04:16:46.064Z,86.77
2018-03-23T04:19:13.524Z,86.70
2018-03-23T04:21:40.970Z,86.71
2018-03-23T04:24:10.489Z,86.75
2018-03-23T04:26:38.199Z,86.27
2018-03-23T04:29:07.130Z,86.64
2018-03-23T04:31:36.910Z,86.20
2018-03-23T04:34:04.455Z,86.06
2018-03-23T04:36:31.918Z,85.74
2018-03-23T04:38:59.375Z,86.03
2018-03-23T04:41:26.858Z,86.34
2018-03-23T04:43:54.319Z,86.14
2018-03-23T04:46:21.785Z,86.14
2018-03-23T04:48:49.266Z,86.36
2018-03-23T04:51:16.805Z,86.40
2018-03-23T04:53:44.450Z,86.21
2018-03-23T04:56:11.939Z,86.86
2018-03-23T04:58:39.425Z,86.24
2018-03-23T05:01:06.895Z,85.88
2018-03-23T05:03:34.399Z,85.44
2018-03-23T05:06:01.969Z,85.40
2018-03-23T05:08:29.495Z,85.44
2018-03-23T05:10:57.189Z,85.30
2018-03-23T05:13:25.037Z,85.46
2018-03-23T05:15:57.919Z,85.92
2018-03-23T05:18:27.269Z,85.59
2018-03-23T05:20:54.753Z,85.57
2018-03-23T05:23:22.209Z,85.66
2018-03-23T05:25:49.666Z,85.54
2018-03-23T05:28:17.109Z,85.35
2018-03-23T05:30:45.548Z,85.48
2018-03-23T05:33:13.029Z,84.95
2018-03-23T05:35:40.494Z,84.45
2018-03-23T05:38:08.941Z,84.37
2018-03-23T05:40:36.437Z,84.72
2018-03-23T05:43:03.894Z,85.06
2018-03-23T05:45:31.362Z,84.74
2018-03-23T05:47:58.848Z,85.18
2018-03-23T05:50:28.669Z,85.29
2018-03-23T05:52:56.121Z,85.44
2018-03-23T05:55:23.574Z,85.03
2018-03-23T05:57:51.889Z,85.07
2018-03-23T06:00:19.345Z,84.55
2018-03-23T06:02:46.876Z,84.32
2018-03-23T06:05:14.330Z,83.96
2018-03-23T06:07:41.778Z,84.22
2018-03-23T06:10:09.255Z,84.33
2018-03-23T06:12:36.712Z,84.15
2018-03-23T06:15:05.251Z,83.67
2018-03-23T06:17:32.743Z,83.41
2018-03-23T06:20:00.263Z,83.60
2018-03-23T06:22:27.719Z,83.21
2018-03-23T06:24:55.176Z,83.56
2018-03-23T06:27:22.659Z,82.58
2018-03-23T06:29:50.135Z,82.26
2018-03-23T06:32:17.599Z,82.15
2018-03-23T06:34:45.082Z,82.08
2018-03-23T06:37:12.527Z,81.80
2018-03-23T06:39:39.979Z,81.88
2018-03-23T06:42:07.451Z,81.63
2018-03-23T06:44:34.897Z,81.58
2018-03-23T06:47:02.346Z,81.70
2018-03-23T06:49:29.802Z,80.94
2018-03-23T06:51:57.373Z,81.01
2018-03-23T06:54:24.864Z,80.82
2018-03-23T06:56:52.353Z,80.46
2018-03-23T06:59:19.855Z,80.48
2018-03-23T07:01:47.348Z,80.68
2018-03-23T07:04:14.842Z,80.54
2018-03-23T07:06:42.300Z,79.66
2018-03-23T07:09:09.766Z,79.61
2018-03-23T07:11:37.230Z,79.69
2018-03-23T07:14:04.689Z,79.69
2018-03-23T07:16:34.108Z,79.76
2018-03-23T07:19:01.598Z,79.37
2018-03-23T07:21:29.082Z,79.24
2018-03-23T07:23:56.580Z,78.19
2018-03-23T07:26:24.049Z,79.06
2018-03-23T07:28:51.556Z,78.98
2018-03-23T07:31:19.011Z,78.75
2018-03-23T07:33:46.471Z,78.30
2018-03-23T07:36:13.965Z,77.07
2018-03-23T07:38:41.432Z,76.35
2018-03-23T07:41:08.881Z,76.95
2018-03-23T07:43:36.354Z,77.96
2018-03-23T07:46:03.867Z,77.68
2018-03-23T07:48:31.316Z,77.08
2018-03-23T07:50:58.766Z,77.02
2018-03-23T07:53:26.291Z,75.98
2018-03-23T07:55:53.744Z,75.96
2018-03-23T07:58:21.214Z,75.26
2018-03-23T08:00:48.678Z,73.61
2018-03-23T08:03:16.134Z,74.26
2018-03-23T08:05:43.589Z,73.38
2018-03-23T08:08:11.039Z,73.50
2018-03-23T08:10:38.494Z,73.31
2018-03-23T08:13:05.963Z,72.61
2018-03-23T08:15:33.426Z,74.53
2018-03-23T08:18:00.897Z,74.33
2018-03-23T08:20:28.360Z,74.73
2018-03-23T08:22:55.834Z,74.60
2018-03-23T08:25:23.325Z,73.38
2018-03-23T08:27:51.118Z,73.24
2018-03-23T08:30:18.731Z,70.58
2018-03-23T08:32:46.953Z,69.27
2018-03-23T08:35:19.117Z,66.75
2018-03-23T08:37:46.652Z,65.84
2018-03-23T08:40:14.133Z,65.57
2018-03-23T08:42:41.648Z,64.04
2018-03-23T08:45:09.152Z,65.49
2018-03-23T08:47:36.599Z,64.46
2018-03-23T08:50:04.841Z,64.64
2018-03-23T08:52:32.283Z,64.58
2018-03-23T08:54:59.774Z,64.61
2018-03-23T08:57:27.229Z,65.56
2018-03-23T08:59:54.706Z,65.69
2018-03-23T09:02:22.144Z,65.93
2018-03-23T09:04:49.601Z,67.20
2018-03-23T09:07:17.047Z,66.91
2018-03-23T09:09:44.500Z,65.36
2018-03-23T09:12:12.051Z,67.40
2018-03-23T09:14:39.525Z,67.20
2018-03-23T09:19:46.959Z,66.90
2018-03-23T09:22:14.511Z,67.41
2018-03-23T09:24:41.973Z,69.33
2018-03-23T09:27:09.411Z,69.17
2018-03-23T09:29:37.002Z,68.79
2018-03-23T09:32:04.472Z,68.20
2018-03-23T09:34:31.975Z,70.04
2018-03-23T09:36:59.424Z,70.74
2018-03-23T09:39:26.883Z,69.27
2018-03-23T09:41:54.376Z,71.87
2018-03-23T09:44:21.831Z,71.42
2018-03-23T09:46:50.763Z,72.43
2018-03-23T09:49:18.208Z,70.46
2018-03-23T09:51:45.662Z,71.13
2018-03-23T09:54:15.117Z,70.57
2018-03-23T09:56:42.606Z,71.28
2018-03-23T09:59:10.041Z,70.99
2018-03-23T10:01:37.484Z,70.53
2018-03-23T10:04:05.019Z,68.18
2018-03-23T10:06:32.391Z,68.96
2018-03-23T10:08:59.849Z,69.82
2018-03-23T10:11:27.360Z,70.69
2018-03-23T10:13:54.795Z,70.54
2018-03-23T10:16:22.253Z,69.26
2018-03-23T10:18:49.905Z,69.41
2018-03-23T10:21:17.372Z,68.55
2018-03-23T10:23:44.842Z,65.07
2018-03-23T10:26:12.279Z,66.33
2018-03-23T10:28:39.746Z,65.84
2018-03-23T10:31:07.178Z,65.56
2018-03-23T10:33:34.624Z,67.14
2018-03-23T10:36:02.074Z,67.96
2018-03-23T10:38:29.515Z,70.02
2018-03-23T10:40:57.026Z,70.28
2018-03-23T10:43:24.510Z,68.70
2018-03-23T10:45:51.957Z,69.50
2018-03-23T10:48:19.394Z,69.54
2018-03-23T10:50:46.834Z,70.03
2018-03-23T10:53:14.763Z,72.20
2018-03-23T10:55:45.121Z,70.15
2018-03-23T10:58:12.566Z,68.77
2018-03-23T11:00:45.766Z,67.15
2018-03-23T11:03:13.226Z,66.49
2018-03-23T11:05:40.711Z,67.22
2018-03-23T11:08:08.168Z,68.29
2018-03-23T11:10:35.614Z,68.03
2018-03-23T11:13:03.069Z,66.86
2018-03-23T11:15:30.515Z,69.25
2018-03-23T11:17:58.096Z,71.34
2018-03-23T11:20:25.523Z,70.84
2018-03-23T11:22:52.959Z,69.00
2018-03-23T11:25:20.445Z,72.49
2018-03-23T11:27:47.885Z,73.94
2018-03-23T11:30:15.623Z,75.18
2018-03-23T11:32:43.066Z,75.26
2018-03-23T11:35:10.899Z,78.86
2018-03-23T11:37:39.115Z,76.88
2018-03-23T11:40:06.572Z,78.94
2018-03-23T11:42:34.076Z,76.25
2018-03-23T11:45:01.515Z,77.11
2018-03-23T11:47:29.916Z,72.29
2018-03-23T11:49:57.399Z,73.86
2018-03-23T11:52:24.921Z,70.32
2018-03-23T11:54:52.392Z,70.06
2018-03-23T11:57:20.038Z,68.48
2018-03-23T11:59:48.656Z,65.24
2018-03-23T12:02:16.144Z,60.92
2018-03-23T12:04:43.799Z,58.28
2018-03-23T12:07:11.346Z,59.54
2018-03-23T12:09:38.869Z,59.30
2018-03-23T12:12:17.065Z,56.37
2018-03-23T12:14:44.515Z,53.72
2018-03-23T12:17:12.329Z,56.00
2018-03-23T12:19:39.936Z,56.61
2018-03-23T12:22:08.694Z,60.02
2018-03-23T12:24:37.281Z,59.59
2018-03-23T12:27:04.730Z,64.67
2018-03-23T12:29:32.168Z,63.67
2018-03-23T12:31:59.615Z,61.72
2018-03-23T12:34:27.063Z,61.71
2018-03-23T12:36:54.505Z,58.87
2018-03-23T12:39:21.960Z,55.72
2018-03-23T12:41:49.419Z,52.12
2018-03-23T12:44:16.870Z,49.69
2018-03-23T12:46:44.395Z,48.08
2018-03-23T12:49:11.851Z,39.45
2018-03-23T12:51:39.305Z,33.27
2018-03-23T12:54:07.822Z,36.36
2018-03-23T12:56:35.641Z,38.67
2018-03-23T12:59:03.802Z,42.56
2018-03-23T13:01:31.255Z,43.36
2018-03-23T13:03:58.761Z,44.91
2018-03-23T13:06:26.238Z,47.79
2018-03-23T13:08:53.641Z,44.82
2018-03-23T13:11:21.097Z,49.39
2018-03-23T13:13:48.551Z,50.38
2018-03-23T13:16:15.995Z,50.50
2018-03-23T13:18:43.429Z,52.69
2018-03-23T13:21:10.932Z,52.62
2018-03-23T13:23:38.355Z,51.33
2018-03-23T13:26:06.148Z,50.72
2018-03-23T13:28:33.591Z,49.99
2018-03-23T13:31:01.038Z,49.17
2018-03-23T13:33:28.516Z,51.40
2018-03-23T13:35:55.998Z,51.35
2018-03-23T13:38:23.498Z,50.46
2018-03-23T13:40:50.959Z,50.24
2018-03-23T13:43:18.399Z,49.47
2018-03-23T13:45:45.845Z,48.73
2018-03-23T13:48:13.292Z,49.68
2018-03-23T13:50:40.746Z,49.68
2018-03-23T13:53:08.198Z,48.24
2018-03-23T13:55:35.678Z,50.47
2018-03-23T13:58:03.124Z,49.91
2018-03-23T14:00:36.141Z,48.06
2018-03-23T14:03:03.583Z,50.71
2018-03-23T14:05:31.039Z,51.37
2018-03-23T14:07:58.495Z,50.07
2018-03-23T14:10:25.965Z,52.16
2018-03-23T14:12:53.410Z,50.78
2018-03-23T14:15:20.871Z,52.02
2018-03-23T14:17:48.333Z,49.26
2018-03-23T14:20:16.694Z,50.35
2018-03-23T14:22:44.130Z,50.73
2018-03-23T14:25:11.603Z,47.44
2018-03-23T14:27:39.041Z,45.60
2018-03-23T14:30:06.475Z,43.23
2018-03-23T14:32:33.943Z,46.59
2018-03-23T14:35:01.387Z,48.54
2018-03-23T14:37:28.873Z,48.57
2018-03-23T14:39:56.348Z,48.63
2018-03-23T14:42:23.799Z,51.49
2018-03-23T14:44:51.266Z,52.47
2018-03-23T14:47:18.706Z,50.13
2018-03-23T14:49:46.142Z,52.55
2018-03-23T14:52:13.592Z,50.76
2018-03-23T14:54:41.039Z,53.54
2018-03-23T14:57:08.503Z,52.96
2018-03-23T14:59:35.963Z,54.73
2018-03-23T15:02:03.413Z,55.17
2018-03-23T15:04:30.855Z,55.25
2018-03-23T15:06:58.320Z,55.90
2018-03-23T15:09:25.770Z,56.73
2018-03-23T15:11:53.206Z,55.73
2018-03-23T15:14:20.677Z,56.40
2018-03-23T15:16:48.154Z,57.06
2018-03-23T15:19:15.594Z,57.43
2018-03-23T15:21:43.084Z,57.20
2018-03-23T15:24:10.502Z,56.53
2018-03-23T15:26:37.945Z,57.89
2018-03-23T15:29:05.455Z,57.21
2018-03-23T15:31:32.972Z,57.52
2018-03-23T15:34:01.590Z,57.38
2018-03-23T15:36:30.892Z,56.27
2018-03-23T15:38:58.615Z,56.18
2018-03-23T15:41:26.082Z,55.22
2018-03-23T15:43:53.529Z,56.33
2018-03-23T15:46:21.030Z,55.52
2018-03-23T15:48:48.505Z,55.49
2018-03-23T15:51:15.964Z,56.05
2018-03-23T15:53:43.431Z,55.41
2018-03-23T15:56:10.926Z,55.06
2018-03-23T15:58:38.410Z,55.22
2018-03-23T16:01:05.849Z,55.09
2018-03-23T16:03:33.294Z,54.51
2018-03-23T16:06:00.737Z,53.49
2018-03-23T16:08:28.327Z,51.90
2018-03-23T16:10:55.782Z,53.36
2018-03-23T16:13:23.254Z,55.38
2018-03-23T16:15:50.694Z,56.03
2018-03-23T16:18:18.161Z,55.81
2018-03-23T16:20:45.614Z,56.55
2018-03-23T16:23:13.055Z,56.74
2018-03-23T16:25:40.585Z,56.77
2018-03-23T16:28:08.027Z,58.27
2018-03-23T16:30:35.463Z,58.19
2018-03-23T16:33:02.984Z,58.93
2018-03-23T16:35:30.423Z,60.56
2018-03-23T16:37:57.875Z,61.05
2018-03-23T16:40:25.334Z,62.17
2018-03-23T16:42:52.779Z,61.44
2018-03-23T16:45:20.244Z,62.35
2018-03-23T16:47:47.726Z,63.44
2018-03-23T16:50:15.160Z,64.06
2018-03-23T16:52:42.611Z,65.52
2018-03-23T16:55:10.209Z,66.39
2018-03-23T16:57:40.063Z,66.36
2018-03-23T17:00:07.518Z,68.55
2018-03-23T17:02:34.975Z,68.33
2018-03-23T17:05:02.437Z,68.85
2018-03-23T17:07:29.867Z,69.61
2018-03-23T17:09:57.315Z,70.39
2018-03-23T17:12:24.766Z,70.40
2018-03-23T17:14:52.214Z,71.07
2018-03-23T17:17:19.663Z,72.21
2018-03-23T17:19:47.124Z,73.15
2018-03-23T17:22:14.573Z,73.09
2018-03-23T17:24:42.066Z,73.67
2018-03-23T17:27:09.518Z,73.90
2018-03-23T17:29:36.976Z,74.50
2018-03-23T17:32:04.542Z,74.69
2018-03-23T17:34:31.983Z,75.26
2018-03-23T17:36:59.426Z,75.83
2018-03-23T17:39:27.086Z,76.80
2018-03-23T17:41:54.747Z,76.95
2018-03-23T17:44:22.238Z,77.23
2018-03-23T17:46:49.694Z,77.82
2018-03-23T17:49:17.154Z,78.37
2018-03-23T17:51:44.690Z,78.82
2018-03-23T17:54:12.146Z,78.96
2018-03-23T17:56:39.610Z,79.79
2018-03-23T17:59:07.079Z,79.60
2018-03-23T18:01:34.622Z,79.39
2018-03-23T18:04:02.223Z,79.42
2018-03-23T18:06:29.729Z,79.52
2018-03-23T18:08:57.242Z,80.29
2018-03-23T18:11:24.718Z,80.62
2018-03-23T18:13:52.195Z,80.46
2018-03-23T18:16:19.686Z,80.95
2018-03-23T18:18:47.133Z,81.23
2018-03-23T18:21:14.601Z,81.16
2018-03-23T18:23:42.074Z,81.12
2018-03-23T18:26:09.546Z,81.81
2018-03-23T18:28:37.000Z,82.04
2018-03-23T18:31:04.443Z,82.09
2018-03-23T18:33:31.935Z,82.66
2018-03-23T18:35:59.632Z,83.01
2018-03-23T18:38:27.097Z,82.85
2018-03-23T18:40:54.595Z,83.07
2018-03-23T18:43:22.525Z,82.78
2018-03-23T18:45:49.983Z,82.64
2018-03-23T18:48:17.461Z,82.57
2018-03-23T18:50:44.930Z,82.37
2018-03-23T18:53:13.586Z,82.35
2018-03-23T18:55:41.145Z,82.16
2018-03-23T18:58:08.633Z,82.05
2018-03-23T19:00:36.086Z,81.74
2018-03-23T19:03:03.550Z,81.46
2018-03-23T19:05:31.019Z,81.68
2018-03-23T19:07:58.621Z,81.50
2018-03-23T19:10:26.115Z,81.33
2018-03-23T19:12:53.663Z,81.11
2018-03-23T19:15:21.181Z,81.06
2018-03-23T19:17:48.630Z,81.26
2018-03-23T19:20:16.081Z,80.84
2018-03-23T19:22:43.570Z,80.92
2018-03-23T19:25:11.026Z,80.93
2018-03-23T19:27:38.502Z,81.22
2018-03-23T19:30:05.960Z,81.33
2018-03-23T19:32:33.438Z,81.17
2018-03-23T19:35:00.965Z,81.08
2018-03-23T19:37:28.455Z,81.09
2018-03-23T19:39:55.954Z,81.46
2018-03-23T19:42:23.418Z,81.50
2018-03-23T19:44:50.909Z,81.62
2018-03-23T19:47:18.478Z,81.97
2018-03-23T19:49:45.975Z,82.14
2018-03-23T19:52:13.431Z,82.00
2018-03-23T19:56:33.969Z,81.83
2018-03-23T19:59:01.480Z,81.66
2018-03-23T20:01:28.953Z,81.75
2018-03-23T20:03:56.434Z,81.57
2018-03-23T20:06:23.914Z,81.54
2018-03-23T20:08:51.406Z,81.49
2018-03-23T20:11:22.033Z,81.27
2018-03-23T20:13:55.121Z,81.54
2018-03-23T20:16:22.666Z,81.37
2018-03-23T20:18:50.294Z,81.57
2018-03-23T20:21:17.769Z,81.55
2018-03-23T20:23:45.293Z,81.75
2018-03-23T20:26:12.875Z,81.45
2018-03-23T20:28:42.927Z,81.51
2018-03-23T20:31:10.460Z,81.74
2018-03-23T20:33:37.938Z,81.81
2018-03-23T20:36:17.534Z,81.93
2018-03-23T20:38:45.160Z,82.10
2018-03-23T20:41:12.665Z,82.33
2018-03-23T20:43:40.188Z,82.50
2018-03-23T20:46:07.913Z,82.53
2018-03-23T20:48:35.404Z,82.85
2018-03-23T20:51:02.872Z,83.08
2018-03-23T20:53:30.421Z,82.73
2018-03-23T20:55:57.850Z,82.59
2018-03-23T20:58:25.339Z,82.96
2018-03-23T21:00:52.821Z,82.96
2018-03-23T21:03:20.276Z,82.90
2018-03-23T21:05:47.770Z,83.14
2018-03-23T21:08:15.221Z,82.85
2018-03-23T21:10:42.678Z,82.75
2018-03-23T21:13:10.149Z,82.71
2018-03-23T21:15:37.601Z,82.81
2018-03-23T21:18:05.088Z,83.14
2018-03-23T21:20:32.728Z,83.09
2018-03-23T21:23:00.301Z,83.18
2018-03-23T21:25:27.771Z,83.25
2018-03-23T21:27:55.231Z,83.21
2018-03-23T21:30:22.765Z,83.24
2018-03-23T21:32:50.298Z,83.24
2018-03-23T21:35:17.833Z,83.47
2018-03-23T21:37:45.334Z,83.82
2018-03-23T21:40:12.785Z,83.88
2018-03-23T21:42:40.297Z,83.52
2018-03-23T21:45:11.868Z,83.18
2018-03-23T21:47:40.335Z,83.36
2018-03-23T21:50:07.884Z,83.80
2018-03-23T21:52:35.470Z,83.61
2018-03-23T21:55:03.086Z,83.22
2018-03-23T21:57:30.715Z,83.23
2018-03-23T21:59:58.213Z,82.90
2018-03-23T22:02:25.718Z,83.01
2018-03-23T22:04:53.176Z,83.04
2018-03-23T22:07:20.790Z,83.36
2018-03-23T22:09:48.478Z,83.37
2018-03-23T22:12:15.936Z,83.18
2018-03-23T22:14:43.421Z,83.08
2018-03-23T22:17:11.031Z,82.80
2018-03-23T22:19:38.535Z,82.75
2018-03-23T22:22:06.109Z,82.90
2018-03-23T22:24:33.572Z,83.14
2018-03-23T22:27:01.135Z,83.40
2018-03-23T22:29:28.772Z,83.21
2018-03-23T22:31:56.221Z,83.23
2018-03-23T22:34:23.676Z,82.96
2018-03-23T22:36:51.226Z,83.11
2018-03-23T22:39:18.785Z,83.25
2018-03-23T22:41:46.277Z,83.60
2018-03-23T22:44:13.726Z,83.46
2018-03-23T22:46:41.392Z,83.54
2018-03-23T22:49:09.025Z,83.42
2018-03-23T22:51:36.582Z,83.50
2018-03-23T22:54:04.219Z,83.96
2018-03-23T22:56:31.720Z,84.25
2018-03-23T22:58:59.391Z,83.77
2018-03-23T23:01:26.894Z,83.62
2018-03-23T23:03:54.377Z,83.78
2018-03-23T23:06:21.844Z,84.22
2018-03-23T23:08:49.297Z,84.50
2018-03-23T23:11:16.760Z,84.18
2018-03-23T23:13:44.241Z,84.17
2018-03-23T23:16:11.704Z,84.07
2018-03-23T23:18:39.510Z,84.20
2018-03-23T23:21:06.988Z,84.03
2018-03-23T23:23:34.480Z,84.36
2018-03-23T23:26:01.922Z,84.37
2018-03-23T23:28:29.435Z,84.42
2018-03-23T23:30:56.871Z,84.10
2018-03-23T23:33:24.501Z,84.13
2018-03-23T23:35:52.225Z,84.42
2018-03-23T23:38:19.715Z,84.72
2018-03-23T23:40:47.177Z,84.62
2018-03-23T23:43:14.641Z,84.53
2018-03-23T23:45:42.087Z,84.46
2018-03-23T23:48:09.629Z,84.75
2018-03-23T23:50:37.122Z,84.79
2018-03-23T23:53:04.604Z,84.72
2018-03-23T23:55:32.258Z,85.30
2018-03-23T23:57:59.812Z,85.23
